sensor_id;sensor_type;location;lat;lon;timestamp;pressure;altitude;pressure_sealevel;temperature;humidity
8101;BME280;4093;53.470;9.832;2023-11-19T00:02:26;100711.13;;;7.70;100.00
8101;BME280;4093;53.470;9.832;2023-11-19T00:04:54;100707.75;;;7.66;100.00
8101;BME280;4093;53.470;9.832;2023-11-19T00:07:22;100689.94;;;7.28;100.00
8101;BME280;4093;53.470;9.832;2023-11-19T00:09:58;100689.91;;;7.37;100.00
8101;BME280;4093;53.470;9.832;2023-11-19T00:12:35;100675.16;;;7.65;100.00
8101;BME280;4093;53.470;9.832;2023-11-19T00:15:04;100664.91;;;7.54;100.00
8101;BME280;4093;53.470;9.832;2023-11-19T00:17:31;100664.91;;;7.54;100.00
8101;BME280;4093;53.470;9.832;2023-11-19T00:19:59;100669.22;;;7.55;100.00
8101;BME280;4093;53.470;9.832;2023-11-19T00:22:27;100641.88;;;7.36;100.00
8101;BME280;4093;53.470;9.832;2023-11-19T00:24:55;100654.47;;;7.80;100.00
8101;BME280;4093;53.470;9.832;2023-11-19T00:27:23;100658.53;;;8.06;100.00
8101;BME280;4093;53.470;9.832;2023-11-19T00:29:52;100632.03;;;7.96;100.00
8101;BME280;4093;53.470;9.832;2023-11-19T00:32:20;100604.78;;;7.68;100.00
8101;BME280;4093;53.470;9.832;2023-11-19T00:34:47;100614.09;;;7.85;100.00
8101;BME280;4093;53.470;9.832;2023-11-19T00:37:16;100627.47;;;8.24;99.74
8101;BME280;4093;53.470;9.832;2023-11-19T00:39:43;100625.44;;;8.57;98.21
8101;BME280;4093;53.470;9.832;2023-11-19T00:42:12;100616.38;;;8.15;99.81
8101;BME280;4093;53.470;9.832;2023-11-19T00:44:40;100608.81;;;8.02;99.38
8101;BME280;4093;53.470;9.832;2023-11-19T00:47:18;100592.00;;;7.58;100.00
8101;BME280;4093;53.470;9.832;2023-11-19T00:49:47;100607.88;;;8.09;100.00
8101;BME280;4093;53.470;9.832;2023-11-19T00:52:16;100604.47;;;8.06;100.00
8101;BME280;4093;53.470;9.832;2023-11-19T00:54:44;100604.09;;;8.44;99.62
8101;BME280;4093;53.470;9.832;2023-11-19T00:57:12;100584.41;;;8.37;98.96
8101;BME280;4093;53.470;9.832;2023-11-19T00:59:41;100572.81;;;7.96;100.00
8101;BME280;4093;53.470;9.832;2023-11-19T01:02:09;100560.63;;;8.10;99.37
8101;BME280;4093;53.470;9.832;2023-11-19T01:04:38;100538.69;;;7.76;100.00
8101;BME280;4093;53.470;9.832;2023-11-19T01:07:06;100531.06;;;7.65;100.00
8101;BME280;4093;53.470;9.832;2023-11-19T01:09:33;100537.84;;;8.54;100.00
8101;BME280;4093;53.470;9.832;2023-11-19T01:12:02;100517.81;;;8.02;100.00
8101;BME280;4093;53.470;9.832;2023-11-19T01:14:30;100515.38;;;7.88;100.00
8101;BME280;4093;53.470;9.832;2023-11-19T01:16:58;100508.59;;;7.84;100.00
8101;BME280;4093;53.470;9.832;2023-11-19T01:19:26;100508.94;;;8.30;100.00
8101;BME280;4093;53.470;9.832;2023-11-19T01:21:56;100510.75;;;8.89;98.07
8101;BME280;4093;53.470;9.832;2023-11-19T01:24:24;100481.63;;;8.14;98.39
8101;BME280;4093;53.470;9.832;2023-11-19T01:26:54;100432.81;;;8.06;100.00
8101;BME280;4093;53.470;9.832;2023-11-19T01:29:24;100482.91;;;8.53;98.88
8101;BME280;4093;53.470;9.832;2023-11-19T01:31:52;100461.75;;;8.24;100.00
8101;BME280;4093;53.470;9.832;2023-11-19T01:34:19;100453.34;;;8.13;100.00
8101;BME280;4093;53.470;9.832;2023-11-19T01:36:47;100459.34;;;8.11;100.00
8101;BME280;4093;53.470;9.832;2023-11-19T01:39:17;100452.09;;;8.43;99.74
8101;BME280;4093;53.470;9.832;2023-11-19T01:41:46;100455.09;;;8.09;100.00
8101;BME280;4093;53.470;9.832;2023-11-19T01:44:13;100441.72;;;7.78;100.00
8101;BME280;4093;53.470;9.832;2023-11-19T01:46:42;100437.19;;;8.00;100.00
8101;BME280;4093;53.470;9.832;2023-11-19T01:49:12;100449.91;;;8.10;100.00
8101;BME280;4093;53.470;9.832;2023-11-19T01:51:42;100451.94;;;8.56;100.00
8101;BME280;4093;53.470;9.832;2023-11-19T01:54:10;100436.56;;;8.50;100.00
8101;BME280;4093;53.470;9.832;2023-11-19T01:56:40;100427.06;;;8.55;100.00
8101;BME280;4093;53.470;9.832;2023-11-19T01:59:09;100415.28;;;8.33;100.00
8101;BME280;4093;53.470;9.832;2023-11-19T02:01:40;100410.78;;;8.50;100.00
8101;BME280;4093;53.470;9.832;2023-11-19T02:04:08;100409.91;;;8.53;100.00
8101;BME280;4093;53.470;9.832;2023-11-19T02:06:39;100414.03;;;9.17;98.70
8101;BME280;4093;53.470;9.832;2023-11-19T02:09:08;100402.81;;;9.21;96.46
8101;BME280;4093;53.470;9.832;2023-11-19T02:11:36;100393.78;;;8.94;99.18
8101;BME280;4093;53.470;9.832;2023-11-19T02:14:08;100392.75;;;8.50;100.00
8101;BME280;4093;53.470;9.832;2023-11-19T02:16:36;100409.84;;;9.58;97.06
8101;BME280;4093;53.470;9.832;2023-11-19T02:19:03;100384.56;;;8.79;99.94
8101;BME280;4093;53.470;9.832;2023-11-19T02:21:32;100351.94;;;8.21;100.00
8101;BME280;4093;53.470;9.832;2023-11-19T02:24:02;100362.69;;;8.51;100.00
8101;BME280;4093;53.470;9.832;2023-11-19T02:26:39;100371.78;;;9.24;99.73
8101;BME280;4093;53.470;9.832;2023-11-19T02:29:08;100382.84;;;9.31;98.28
8101;BME280;4093;53.470;9.832;2023-11-19T02:31:36;100359.50;;;9.37;96.38
8101;BME280;4093;53.470;9.832;2023-11-19T02:34:04;100314.13;;;8.25;100.00
8101;BME280;4093;53.470;9.832;2023-11-19T02:36:32;100343.56;;;8.66;100.00
8101;BME280;4093;53.470;9.832;2023-11-19T02:39:00;100355.31;;;9.30;100.00
8101;BME280;4093;53.470;9.832;2023-11-19T02:41:29;100327.41;;;9.06;100.00
8101;BME280;4093;53.470;9.832;2023-11-19T02:43:57;100300.91;;;8.97;100.00
8101;BME280;4093;53.470;9.832;2023-11-19T02:46:26;100305.00;;;9.09;100.00
8101;BME280;4093;53.470;9.832;2023-11-19T02:48:54;100313.31;;;9.67;99.84
8101;BME280;4093;53.470;9.832;2023-11-19T02:51:21;100301.69;;;9.88;97.36
8101;BME280;4093;53.470;9.832;2023-11-19T02:53:49;100274.38;;;9.36;99.08
8101;BME280;4093;53.470;9.832;2023-11-19T02:56:17;100277.66;;;9.44;100.00
8101;BME280;4093;53.470;9.832;2023-11-19T02:58:51;100258.94;;;9.34;100.00
8101;BME280;4093;53.470;9.832;2023-11-19T03:01:22;100259.34;;;9.56;99.27
8101;BME280;4093;53.470;9.832;2023-11-19T03:03:59;100249.88;;;9.57;100.00
8101;BME280;4093;53.470;9.832;2023-11-19T03:06:28;100248.38;;;9.46;100.00
8101;BME280;4093;53.470;9.832;2023-11-19T03:08:56;100260.13;;;9.60;100.00
8101;BME280;4093;53.470;9.832;2023-11-19T03:11:23;100246.34;;;9.61;100.00
8101;BME280;4093;53.470;9.832;2023-11-19T03:13:52;100254.22;;;9.93;99.10
8101;BME280;4093;53.470;9.832;2023-11-19T03:16:19;100241.09;;;9.65;100.00
8101;BME280;4093;53.470;9.832;2023-11-19T03:18:47;100245.56;;;9.57;100.00
8101;BME280;4093;53.470;9.832;2023-11-19T03:21:16;100189.81;;;9.50;100.00
8101;BME280;4093;53.470;9.832;2023-11-19T03:23:44;100243.81;;;10.34;99.67
8101;BME280;4093;53.470;9.832;2023-11-19T03:26:12;100234.28;;;10.36;98.56
8101;BME280;4093;53.470;9.832;2023-11-19T03:28:39;100233.13;;;10.12;100.00
8101;BME280;4093;53.470;9.832;2023-11-19T03:31:07;100234.00;;;10.11;100.00
8101;BME280;4093;53.470;9.832;2023-11-19T03:33:35;100234.03;;;10.47;100.00
8101;BME280;4093;53.470;9.832;2023-11-19T03:36:04;100230.59;;;10.46;100.00
8101;BME280;4093;53.470;9.832;2023-11-19T03:38:34;100219.97;;;10.57;100.00
8101;BME280;4093;53.470;9.832;2023-11-19T03:41:10;100219.97;;;10.57;100.00
8101;BME280;4093;53.470;9.832;2023-11-19T03:43:38;100214.31;;;10.42;100.00
8101;BME280;4093;53.470;9.832;2023-11-19T03:46:16;100211.81;;;10.39;100.00
8101;BME280;4093;53.470;9.832;2023-11-19T03:48:44;100205.91;;;10.34;100.00
8101;BME280;4093;53.470;9.832;2023-11-19T03:51:12;100212.81;;;10.34;100.00
8101;BME280;4093;53.470;9.832;2023-11-19T03:53:43;100214.34;;;10.75;100.00
8101;BME280;4093;53.470;9.832;2023-11-19T03:56:11;100220.03;;;10.88;100.00
8101;BME280;4093;53.470;9.832;2023-11-19T03:58:39;100209.97;;;10.45;100.00
8101;BME280;4093;53.470;9.832;2023-11-19T04:01:11;100222.56;;;10.89;100.00
8101;BME280;4093;53.470;9.832;2023-11-19T04:03:39;100209.72;;;10.54;100.00
8101;BME280;4093;53.470;9.832;2023-11-19T04:06:16;100204.75;;;10.79;100.00
8101;BME280;4093;53.470;9.832;2023-11-19T04:08:45;100196.56;;;10.63;100.00
8101;BME280;4093;53.470;9.832;2023-11-19T04:11:13;100199.25;;;10.58;100.00
8101;BME280;4093;53.470;9.832;2023-11-19T04:13:41;100195.50;;;10.70;100.00
8101;BME280;4093;53.470;9.832;2023-11-19T04:16:09;100193.03;;;10.97;100.00
8101;BME280;4093;53.470;9.832;2023-11-19T04:18:36;100180.16;;;10.64;100.00
8101;BME280;4093;53.470;9.832;2023-11-19T04:21:06;100187.84;;;10.97;100.00
8101;BME280;4093;53.470;9.832;2023-11-19T04:23:34;100176.81;;;11.21;100.00
8101;BME280;4093;53.470;9.832;2023-11-19T04:26:03;100165.78;;;11.15;99.78
8101;BME280;4093;53.470;9.832;2023-11-19T04:28:35;100173.56;;;10.83;100.00
8101;BME280;4093;53.470;9.832;2023-11-19T04:31:04;100165.03;;;11.11;100.00
8101;BME280;4093;53.470;9.832;2023-11-19T04:33:32;100156.19;;;11.18;100.00
8101;BME280;4093;53.470;9.832;2023-11-19T04:36:00;100166.59;;;11.17;100.00
8101;BME280;4093;53.470;9.832;2023-11-19T04:38:29;100174.03;;;11.27;100.00
8101;BME280;4093;53.470;9.832;2023-11-19T04:40:57;100173.91;;;11.32;100.00
8101;BME280;4093;53.470;9.832;2023-11-19T04:43:26;100174.81;;;11.59;100.00
8101;BME280;4093;53.470;9.832;2023-11-19T04:45:54;100175.97;;;11.77;100.00
8101;BME280;4093;53.470;9.832;2023-11-19T04:48:21;100178.31;;;11.86;100.00
8101;BME280;4093;53.470;9.832;2023-11-19T04:50:49;100174.50;;;11.70;100.00
8101;BME280;4093;53.470;9.832;2023-11-19T04:53:19;100176.56;;;11.87;100.00
8101;BME280;4093;53.470;9.832;2023-11-19T04:55:46;100174.72;;;11.90;100.00
8101;BME280;4093;53.470;9.832;2023-11-19T04:58:14;100169.41;;;11.95;100.00
8101;BME280;4093;53.470;9.832;2023-11-19T05:00:43;100174.03;;;11.85;100.00
8101;BME280;4093;53.470;9.832;2023-11-19T05:03:11;100158.63;;;12.07;100.00
8101;BME280;4093;53.470;9.832;2023-11-19T05:05:39;100161.28;;;12.06;100.00
8101;BME280;4093;53.470;9.832;2023-11-19T05:08:07;100169.59;;;12.15;100.00
8101;BME280;4093;53.470;9.832;2023-11-19T05:10:34;100150.59;;;12.40;100.00
8101;BME280;4093;53.470;9.832;2023-11-19T05:13:03;100150.16;;;12.54;100.00
8101;BME280;4093;53.470;9.832;2023-11-19T05:15:31;100147.56;;;12.54;100.00
8101;BME280;4093;53.470;9.832;2023-11-19T05:18:01;100146.69;;;12.53;100.00
8101;BME280;4093;53.470;9.832;2023-11-19T05:20:29;100145.22;;;12.46;100.00
8101;BME280;4093;53.470;9.832;2023-11-19T05:22:56;100130.38;;;12.49;100.00
8101;BME280;4093;53.470;9.832;2023-11-19T05:25:26;100149.31;;;12.77;100.00
8101;BME280;4093;53.470;9.832;2023-11-19T05:27:54;100151.00;;;12.78;100.00
8101;BME280;4093;53.470;9.832;2023-11-19T05:30:22;100145.13;;;12.96;99.49
8101;BME280;4093;53.470;9.832;2023-11-19T05:32:50;100138.19;;;12.96;99.91
8101;BME280;4093;53.470;9.832;2023-11-19T05:35:19;100138.16;;;12.98;99.99
8101;BME280;4093;53.470;9.832;2023-11-19T05:37:47;100147.53;;;13.24;98.63
8101;BME280;4093;53.470;9.832;2023-11-19T05:40:16;100138.72;;;13.30;99.26
8101;BME280;4093;53.470;9.832;2023-11-19T05:42:45;100134.97;;;13.37;98.13
8101;BME280;4093;53.470;9.832;2023-11-19T05:45:13;100134.69;;;13.21;99.75
8101;BME280;4093;53.470;9.832;2023-11-19T05:47:41;100132.97;;;12.98;100.00
8101;BME280;4093;53.470;9.832;2023-11-19T05:50:10;100139.50;;;13.08;100.00
8101;BME280;4093;53.470;9.832;2023-11-19T05:52:39;100135.03;;;13.12;100.00
8101;BME280;4093;53.470;9.832;2023-11-19T05:55:07;100134.00;;;13.16;100.00
8101;BME280;4093;53.470;9.832;2023-11-19T05:57:37;100138.38;;;13.39;100.00
8101;BME280;4093;53.470;9.832;2023-11-19T06:00:08;100140.41;;;13.31;100.00
8101;BME280;4093;53.470;9.832;2023-11-19T06:02:39;100124.38;;;13.19;100.00
8101;BME280;4093;53.470;9.832;2023-11-19T06:05:07;100120.19;;;13.15;100.00
8101;BME280;4093;53.470;9.832;2023-11-19T06:07:36;100138.38;;;13.61;100.00
8101;BME280;4093;53.470;9.832;2023-11-19T06:10:07;100111.47;;;13.40;100.00
8101;BME280;4093;53.470;9.832;2023-11-19T06:12:37;100088.72;;;13.25;100.00
8101;BME280;4093;53.470;9.832;2023-11-19T06:15:08;100123.97;;;13.30;100.00
8101;BME280;4093;53.470;9.832;2023-11-19T06:17:36;100108.63;;;13.46;100.00
8101;BME280;4093;53.470;9.832;2023-11-19T06:20:05;100132.44;;;13.79;98.92
8101;BME280;4093;53.470;9.832;2023-11-19T06:22:34;100121.97;;;13.59;100.00
8101;BME280;4093;53.470;9.832;2023-11-19T06:25:02;100134.19;;;13.79;99.28
8101;BME280;4093;53.470;9.832;2023-11-19T06:27:35;100125.41;;;13.81;100.00
8101;BME280;4093;53.470;9.832;2023-11-19T06:30:03;100131.44;;;13.60;100.00
8101;BME280;4093;53.470;9.832;2023-11-19T06:32:32;100131.72;;;13.54;100.00
8101;BME280;4093;53.470;9.832;2023-11-19T06:35:00;100132.13;;;13.65;100.00
8101;BME280;4093;53.470;9.832;2023-11-19T06:37:27;100135.88;;;13.58;100.00
8101;BME280;4093;53.470;9.832;2023-11-19T06:39:55;100136.91;;;13.76;100.00
8101;BME280;4093;53.470;9.832;2023-11-19T06:42:23;100129.28;;;13.49;100.00
8101;BME280;4093;53.470;9.832;2023-11-19T06:44:52;100138.28;;;13.62;100.00
8101;BME280;4093;53.470;9.832;2023-11-19T06:47:20;100144.44;;;13.82;100.00
8101;BME280;4093;53.470;9.832;2023-11-19T06:49:47;100136.91;;;13.76;100.00
8101;BME280;4093;53.470;9.832;2023-11-19T06:52:16;100143.31;;;13.67;100.00
8101;BME280;4093;53.470;9.832;2023-11-19T06:54:43;100141.00;;;13.81;99.96
8101;BME280;4093;53.470;9.832;2023-11-19T06:57:12;100159.13;;;13.83;100.00
8101;BME280;4093;53.470;9.832;2023-11-19T06:59:39;100146.19;;;13.59;100.00
8101;BME280;4093;53.470;9.832;2023-11-19T07:02:08;100138.41;;;13.59;100.00
8101;BME280;4093;53.470;9.832;2023-11-19T07:04:36;100154.44;;;13.71;100.00
8101;BME280;4093;53.470;9.832;2023-11-19T07:07:04;100153.44;;;13.95;100.00
8101;BME280;4093;53.470;9.832;2023-11-19T07:09:32;100159.53;;;13.94;100.00
8101;BME280;4093;53.470;9.832;2023-11-19T07:12:00;100156.88;;;13.96;99.49
8101;BME280;4093;53.470;9.832;2023-11-19T07:14:31;100151.09;;;13.89;100.00
8101;BME280;4093;53.470;9.832;2023-11-19T07:16:59;100166.34;;;13.97;100.00
8101;BME280;4093;53.470;9.832;2023-11-19T07:19:28;100160.81;;;13.84;100.00
8101;BME280;4093;53.470;9.832;2023-11-19T07:21:56;100166.38;;;13.75;100.00
8101;BME280;4093;53.470;9.832;2023-11-19T07:24:23;100168.28;;;14.14;98.85
8101;BME280;4093;53.470;9.832;2023-11-19T07:26:51;100168.25;;;13.93;100.00
8101;BME280;4093;53.470;9.832;2023-11-19T07:29:20;100166.19;;;14.01;99.85
8101;BME280;4093;53.470;9.832;2023-11-19T07:31:51;100171.66;;;14.16;99.07
8101;BME280;4093;53.470;9.832;2023-11-19T07:34:19;100181.16;;;14.37;98.38
8101;BME280;4093;53.470;9.832;2023-11-19T07:36:49;100166.56;;;13.92;99.08
8101;BME280;4093;53.470;9.832;2023-11-19T07:39:16;100179.91;;;14.25;98.70
8101;BME280;4093;53.470;9.832;2023-11-19T07:41:44;100178.00;;;14.29;98.58
8101;BME280;4093;53.470;9.832;2023-11-19T07:44:12;100161.81;;;14.02;98.96
8101;BME280;4093;53.470;9.832;2023-11-19T07:46:40;100165.72;;;14.12;98.92
8101;BME280;4093;53.470;9.832;2023-11-19T07:49:08;100167.53;;;14.10;99.66
8101;BME280;4093;53.470;9.832;2023-11-19T07:51:37;100168.22;;;14.35;97.69
8101;BME280;4093;53.470;9.832;2023-11-19T07:54:06;100173.09;;;14.23;98.31
8101;BME280;4093;53.470;9.832;2023-11-19T07:56:35;100167.91;;;14.23;97.84
8101;BME280;4093;53.470;9.832;2023-11-19T07:59:03;100170.63;;;14.20;98.08
8101;BME280;4093;53.470;9.832;2023-11-19T08:01:31;100178.16;;;14.46;96.86
8101;BME280;4093;53.470;9.832;2023-11-19T08:03:59;100120.16;;;14.03;96.33
8101;BME280;4093;53.470;9.832;2023-11-19T08:06:28;100174.19;;;14.17;98.22
8101;BME280;4093;53.470;9.832;2023-11-19T08:08:56;100188.16;;;14.35;97.57
8101;BME280;4093;53.470;9.832;2023-11-19T08:11:25;100181.53;;;14.07;98.65
8101;BME280;4093;53.470;9.832;2023-11-19T08:13:53;100201.84;;;14.40;97.73
8101;BME280;4093;53.470;9.832;2023-11-19T08:16:21;100183.88;;;14.14;98.76
8101;BME280;4093;53.470;9.832;2023-11-19T08:18:49;100193.41;;;14.13;98.50
8101;BME280;4093;53.470;9.832;2023-11-19T08:21:16;100187.31;;;14.34;97.44
8101;BME280;4093;53.470;9.832;2023-11-19T08:23:44;100187.75;;;14.03;97.95
8101;BME280;4093;53.470;9.832;2023-11-19T08:26:14;100181.31;;;13.92;100.00
8101;BME280;4093;53.470;9.832;2023-11-19T08:28:48;100196.09;;;14.32;98.17
8101;BME280;4093;53.470;9.832;2023-11-19T08:31:15;100195.13;;;14.14;97.90
8101;BME280;4093;53.470;9.832;2023-11-19T08:33:43;100204.94;;;14.28;97.99
8101;BME280;4093;53.470;9.832;2023-11-19T08:36:15;100213.44;;;14.53;95.97
8101;BME280;4093;53.470;9.832;2023-11-19T08:38:43;100209.47;;;14.45;96.49
8101;BME280;4093;53.470;9.832;2023-11-19T08:41:11;100203.50;;;14.41;95.92
8101;BME280;4093;53.470;9.832;2023-11-19T08:43:38;100214.63;;;14.67;95.47
8101;BME280;4093;53.470;9.832;2023-11-19T08:46:10;100216.53;;;15.02;94.35
8101;BME280;4093;53.470;9.832;2023-11-19T08:48:38;100218.50;;;15.35;92.71
8101;BME280;4093;53.470;9.832;2023-11-19T08:51:06;100208.16;;;14.75;94.58
8101;BME280;4093;53.470;9.832;2023-11-19T08:53:34;100216.13;;;14.91;93.61
8101;BME280;4093;53.470;9.832;2023-11-19T08:56:02;100214.63;;;14.67;95.17
8101;BME280;4093;53.470;9.832;2023-11-19T08:58:30;100219.09;;;14.63;94.15
8101;BME280;4093;53.470;9.832;2023-11-19T09:00:58;100214.44;;;14.51;94.80
8101;BME280;4093;53.470;9.832;2023-11-19T09:03:27;100223.31;;;14.66;94.78
8101;BME280;4093;53.470;9.832;2023-11-19T09:05:57;100223.25;;;14.88;93.87
8101;BME280;4093;53.470;9.832;2023-11-19T09:08:24;100220.97;;;14.80;94.20
8101;BME280;4093;53.470;9.832;2023-11-19T09:10:52;100227.88;;;14.81;93.38
8101;BME280;4093;53.470;9.832;2023-11-19T09:13:20;100236.34;;;14.86;93.54
8101;BME280;4093;53.470;9.832;2023-11-19T09:15:49;100235.41;;;14.87;91.95
8101;BME280;4093;53.470;9.832;2023-11-19T09:18:17;100225.81;;;14.47;93.82
8101;BME280;4093;53.470;9.832;2023-11-19T09:20:46;100229.75;;;14.57;93.45
8101;BME280;4093;53.470;9.832;2023-11-19T09:23:14;100238.22;;;14.62;93.90
8101;BME280;4093;53.470;9.832;2023-11-19T09:25:42;100245.59;;;14.73;93.14
8101;BME280;4093;53.470;9.832;2023-11-19T09:28:11;100233.84;;;14.42;93.62
8101;BME280;4093;53.470;9.832;2023-11-19T09:30:39;100225.88;;;14.25;94.38
8101;BME280;4093;53.470;9.832;2023-11-19T09:33:07;100231.25;;;14.42;93.78
8101;BME280;4093;53.470;9.832;2023-11-19T09:35:35;100242.72;;;14.58;93.01
8101;BME280;4093;53.470;9.832;2023-11-19T09:38:04;100237.38;;;14.62;92.35
8101;BME280;4093;53.470;9.832;2023-11-19T09:40:32;100241.63;;;14.64;92.28
8101;BME280;4093;53.470;9.832;2023-11-19T09:43:00;100240.28;;;14.54;92.11
8101;BME280;4093;53.470;9.832;2023-11-19T09:45:29;100245.00;;;14.44;94.06
8101;BME280;4093;53.470;9.832;2023-11-19T09:48:00;100249.88;;;14.74;92.56
8101;BME280;4093;53.470;9.832;2023-11-19T09:50:31;100244.59;;;14.96;92.09
8101;BME280;4093;53.470;9.832;2023-11-19T09:52:58;100256.94;;;15.11;91.03
8101;BME280;4093;53.470;9.832;2023-11-19T09:55:27;100257.09;;;15.27;89.92
8101;BME280;4093;53.470;9.832;2023-11-19T09:57:56;100244.50;;;14.97;90.38
8101;BME280;4093;53.470;9.832;2023-11-19T10:00:27;100246.75;;;14.86;90.65
8101;BME280;4093;53.470;9.832;2023-11-19T10:02:55;100235.09;;;14.54;92.16
8101;BME280;4093;53.470;9.832;2023-11-19T10:05:24;100242.44;;;14.85;91.05
8101;BME280;4093;53.470;9.832;2023-11-19T10:07:53;100242.81;;;14.96;91.03
8101;BME280;4093;53.470;9.832;2023-11-19T10:10:22;100238.91;;;14.45;92.53
8101;BME280;4093;53.470;9.832;2023-11-19T10:12:52;100234.06;;;14.78;91.83
8101;BME280;4093;53.470;9.832;2023-11-19T10:15:23;100233.09;;;14.61;92.54
8101;BME280;4093;53.470;9.832;2023-11-19T10:17:55;100226.41;;;14.33;93.11
8101;BME280;4093;53.470;9.832;2023-11-19T10:20:23;100219.25;;;14.38;93.48
8101;BME280;4093;53.470;9.832;2023-11-19T10:22:52;100239.97;;;14.82;91.69
8101;BME280;4093;53.470;9.832;2023-11-19T10:25:25;100230.41;;;14.42;92.69
8101;BME280;4093;53.470;9.832;2023-11-19T10:27:55;100233.63;;;14.47;92.05
8101;BME280;4093;53.470;9.832;2023-11-19T10:30:25;100244.72;;;14.72;91.80
8101;BME280;4093;53.470;9.832;2023-11-19T10:33:06;100245.59;;;14.73;91.35
8101;BME280;4093;53.470;9.832;2023-11-19T10:35:35;100244.53;;;14.77;91.37
8101;BME280;4093;53.470;9.832;2023-11-19T10:38:13;100224.28;;;14.43;92.92
8101;BME280;4093;53.470;9.832;2023-11-19T10:40:41;100223.47;;;14.20;93.43
8101;BME280;4093;53.470;9.832;2023-11-19T10:43:12;100237.66;;;14.55;92.40
8101;BME280;4093;53.470;9.832;2023-11-19T10:45:40;100243.06;;;14.51;92.66
8101;BME280;4093;53.470;9.832;2023-11-19T10:48:08;100246.69;;;14.67;93.36
8101;BME280;4093;53.470;9.832;2023-11-19T10:50:37;100243.06;;;14.49;94.13
8101;BME280;4093;53.470;9.832;2023-11-19T10:53:06;100242.16;;;14.91;92.89
8101;BME280;4093;53.470;9.832;2023-11-19T10:55:36;100240.44;;;14.92;92.18
8101;BME280;4093;53.470;9.832;2023-11-19T10:58:06;100238.31;;;15.00;91.95
8101;BME280;4093;53.470;9.832;2023-11-19T11:00:38;100245.09;;;15.04;90.88
8101;BME280;4093;53.470;9.832;2023-11-19T11:03:11;100239.13;;;14.81;92.98
8101;BME280;4093;53.470;9.832;2023-11-19T11:05:43;100231.78;;;14.71;92.42
8101;BME280;4093;53.470;9.832;2023-11-19T11:08:10;100242.56;;;14.82;92.26
8101;BME280;4093;53.470;9.832;2023-11-19T11:10:43;100230.69;;;14.76;93.09
8101;BME280;4093;53.470;9.832;2023-11-19T11:13:14;100228.78;;;14.60;93.46
8101;BME280;4093;53.470;9.832;2023-11-19T11:15:44;100228.91;;;14.56;94.52
8101;BME280;4093;53.470;9.832;2023-11-19T11:18:13;100233.78;;;14.85;93.13
8101;BME280;4093;53.470;9.832;2023-11-19T11:20:41;100235.47;;;14.45;93.87
8101;BME280;4093;53.470;9.832;2023-11-19T11:23:37;100240.22;;;14.76;93.08
8101;BME280;4093;53.470;9.832;2023-11-19T11:26:25;100244.94;;;14.68;94.20
8101;BME280;4093;53.470;9.832;2023-11-19T11:29:01;100190.75;;;14.35;93.42
8101;BME280;4093;53.470;9.832;2023-11-19T11:31:36;100244.63;;;14.94;93.00
8101;BME280;4093;53.470;9.832;2023-11-19T11:34:27;100240.88;;;14.81;93.00
8101;BME280;4093;53.470;9.832;2023-11-19T11:37:09;100247.16;;;14.77;94.45
8101;BME280;4093;53.470;9.832;2023-11-19T11:39:40;100252.50;;;15.13;92.63
8101;BME280;4093;53.470;9.832;2023-11-19T11:42:30;100250.25;;;14.85;92.58
8101;BME280;4093;53.470;9.832;2023-11-19T11:44:58;100249.47;;;14.63;93.32
8101;BME280;4093;53.470;9.832;2023-11-19T11:48:09;100248.84;;;15.17;90.97
8101;BME280;4093;53.470;9.832;2023-11-19T11:50:49;100235.16;;;14.93;91.58
8101;BME280;4093;53.470;9.832;2023-11-19T11:53:19;100254.28;;;15.32;90.02
8101;BME280;4093;53.470;9.832;2023-11-19T11:55:56;100249.16;;;15.30;89.39
8101;BME280;4093;53.470;9.832;2023-11-19T11:58:35;100242.28;;;15.09;91.17
8101;BME280;4093;53.470;9.832;2023-11-19T12:01:05;100245.56;;;15.33;90.93
8101;BME280;4093;53.470;9.832;2023-11-19T12:03:37;100246.69;;;15.27;91.43
8101;BME280;4093;53.470;9.832;2023-11-19T12:06:05;100230.50;;;15.39;90.58
8101;BME280;4093;53.470;9.832;2023-11-19T12:08:35;100239.00;;;15.24;91.27
8101;BME280;4093;53.470;9.832;2023-11-19T12:11:19;100240.78;;;15.23;92.37
8101;BME280;4093;53.470;9.832;2023-11-19T12:13:53;100228.91;;;15.16;91.69
8101;BME280;4093;53.470;9.832;2023-11-19T12:16:22;100226.50;;;14.93;92.30
8101;BME280;4093;53.470;9.832;2023-11-19T12:18:51;100232.53;;;14.93;91.83
8101;BME280;4093;53.470;9.832;2023-11-19T12:21:30;100236.59;;;14.80;92.45
8101;BME280;4093;53.470;9.832;2023-11-19T12:23:59;100224.34;;;14.82;92.53
8101;BME280;4093;53.470;9.832;2023-11-19T12:26:35;100235.69;;;15.20;92.21
8101;BME280;4093;53.470;9.832;2023-11-19T12:29:03;100234.75;;;15.02;91.73
8101;BME280;4093;53.470;9.832;2023-11-19T12:31:35;100230.75;;;15.14;91.42
8101;BME280;4093;53.470;9.832;2023-11-19T12:34:09;100230.41;;;15.22;91.48
8101;BME280;4093;53.470;9.832;2023-11-19T12:36:40;100229.38;;;15.45;89.91
8101;BME280;4093;53.470;9.832;2023-11-19T12:39:09;100224.09;;;15.46;89.26
8101;BME280;4093;53.470;9.832;2023-11-19T12:41:49;100230.22;;;15.45;89.27
8101;BME280;4093;53.470;9.832;2023-11-19T12:44:17;100235.00;;;15.36;90.31
8101;BME280;4093;53.470;9.832;2023-11-19T12:46:45;100236.81;;;15.53;89.05
8101;BME280;4093;53.470;9.832;2023-11-19T12:49:14;100220.41;;;15.13;89.59
8101;BME280;4093;53.470;9.832;2023-11-19T12:51:42;100225.16;;;15.42;88.15
8101;BME280;4093;53.470;9.832;2023-11-19T12:54:09;100216.50;;;15.42;88.60
8101;BME280;4093;53.470;9.832;2023-11-19T12:56:38;100216.97;;;15.31;88.94
8101;BME280;4093;53.470;9.832;2023-11-19T12:59:11;100208.94;;;15.17;88.44
8101;BME280;4093;53.470;9.832;2023-11-19T13:01:39;100220.34;;;15.33;89.16
8101;BME280;4093;53.470;9.832;2023-11-19T13:04:18;100199.38;;;14.78;90.39
8101;BME280;4093;53.470;9.832;2023-11-19T13:06:46;100201.28;;;15.14;89.74
8101;BME280;4093;53.470;9.832;2023-11-19T13:09:31;100211.75;;;15.31;89.85
8101;BME280;4093;53.470;9.832;2023-11-19T13:11:59;100207.38;;;15.50;87.92
8101;BME280;4093;53.470;9.832;2023-11-19T13:14:36;100199.50;;;15.33;87.39
8101;BME280;4093;53.470;9.832;2023-11-19T13:17:04;100198.56;;;14.96;88.69
8101;BME280;4093;53.470;9.832;2023-11-19T13:19:34;100202.81;;;15.18;88.10
8101;BME280;4093;53.470;9.832;2023-11-19T13:22:01;100201.72;;;14.84;88.97
8101;BME280;4093;53.470;9.832;2023-11-19T13:24:29;100213.16;;;15.19;88.83